sensor_id;sensor_type;location;lat;lon;timestamp;temperature;humidity
43015;DHT22;28637;50.554;7.032;2022-11-20T00:04:53;4.10;99.90
43015;DHT22;28637;50.554;7.032;2022-11-20T00:09:54;4.00;99.90
43015;DHT22;28637;50.554;7.032;2022-11-20T00:14:54;4.00;99.90
43015;DHT22;28637;50.554;7.032;2022-11-20T00:19:55;4.10;99.90
43015;DHT22;28637;50.554;7.032;2022-11-20T00:24:56;4.10;99.90
43015;DHT22;28637;50.554;7.032;2022-11-20T00:29:58;4.10;99.90
43015;DHT22;28637;50.554;7.032;2022-11-20T00:34:58;4.10;99.90
43015;DHT22;28637;50.554;7.032;2022-11-20T00:39:59;4.10;99.90
43015;DHT22;28637;50.554;7.032;2022-11-20T00:45:00;4.00;99.90
43015;DHT22;28637;50.554;7.032;2022-11-20T00:50:00;4.00;99.90
43015;DHT22;28637;50.554;7.032;2022-11-20T00:55:01;4.00;99.90
43015;DHT22;28637;50.554;7.032;2022-11-20T01:00:02;4.00;99.90
43015;DHT22;28637;50.554;7.032;2022-11-20T01:05:03;4.00;99.90
43015;DHT22;28637;50.554;7.032;2022-11-20T01:10:04;4.10;99.90
43015;DHT22;28637;50.554;7.032;2022-11-20T01:15:05;4.10;99.90
43015;DHT22;28637;50.554;7.032;2022-11-20T01:20:06;4.20;99.90
43015;DHT22;28637;50.554;7.032;2022-11-20T01:25:07;4.10;99.90
43015;DHT22;28637;50.554;7.032;2022-11-20T01:30:08;4.20;99.90
43015;DHT22;28637;50.554;7.032;2022-11-20T01:35:09;4.30;99.90
43015;DHT22;28637;50.554;7.032;2022-11-20T01:40:11;4.20;99.90
43015;DHT22;28637;50.554;7.032;2022-11-20T01:50:46;4.20;99.90
43015;DHT22;28637;50.554;7.032;2022-11-20T01:55:52;4.20;99.90
43015;DHT22;28637;50.554;7.032;2022-11-20T02:00:53;4.20;99.90
43015;DHT22;28637;50.554;7.032;2022-11-20T02:06:15;4.10;99.90
43015;DHT22;28637;50.554;7.032;2022-11-20T02:11:17;4.20;99.90
43015;DHT22;28637;50.554;7.032;2022-11-20T02:21:56;4.20;99.90
43015;DHT22;28637;50.554;7.032;2022-11-20T02:27:06;4.30;99.90
43015;DHT22;28637;50.554;7.032;2022-11-20T02:32:21;4.30;99.90
43015;DHT22;28637;50.554;7.032;2022-11-20T02:37:24;4.30;99.90
43015;DHT22;28637;50.554;7.032;2022-11-20T02:42:28;4.40;99.90
43015;DHT22;28637;50.554;7.032;2022-11-20T02:47:28;4.40;99.90
43015;DHT22;28637;50.554;7.032;2022-11-20T02:52:30;4.40;99.90
43015;DHT22;28637;50.554;7.032;2022-11-20T02:57:30;4.40;99.90
43015;DHT22;28637;50.554;7.032;2022-11-20T03:02:31;4.40;99.90
43015;DHT22;28637;50.554;7.032;2022-11-20T03:07:32;4.50;99.90
43015;DHT22;28637;50.554;7.032;2022-11-20T03:12:33;4.50;99.90
43015;DHT22;28637;50.554;7.032;2022-11-20T03:17:33;4.40;99.90
43015;DHT22;28637;50.554;7.032;2022-11-20T03:22:35;4.40;99.90
43015;DHT22;28637;50.554;7.032;2022-11-20T03:27:36;4.30;99.90
43015;DHT22;28637;50.554;7.032;2022-11-20T03:32:36;4.40;99.90
43015;DHT22;28637;50.554;7.032;2022-11-20T03:37:37;4.50;99.90
43015;DHT22;28637;50.554;7.032;2022-11-20T03:42:37;4.50;99.90
43015;DHT22;28637;50.554;7.032;2022-11-20T03:47:47;4.50;99.90
43015;DHT22;28637;50.554;7.032;2022-11-20T03:52:48;4.60;99.90
43015;DHT22;28637;50.554;7.032;2022-11-20T03:57:48;4.50;99.90
43015;DHT22;28637;50.554;7.032;2022-11-20T04:02:49;4.60;99.90
43015;DHT22;28637;50.554;7.032;2022-11-20T04:07:50;4.60;99.90
43015;DHT22;28637;50.554;7.032;2022-11-20T04:12:50;4.60;99.90
43015;DHT22;28637;50.554;7.032;2022-11-20T04:17:51;4.70;99.90
43015;DHT22;28637;50.554;7.032;2022-11-20T04:22:53;4.70;99.90
43015;DHT22;28637;50.554;7.032;2022-11-20T04:27:54;4.70;99.90
43015;DHT22;28637;50.554;7.032;2022-11-20T04:32:55;4.70;99.90
43015;DHT22;28637;50.554;7.032;2022-11-20T04:37:56;4.70;99.90
43015;DHT22;28637;50.554;7.032;2022-11-20T04:42:56;4.50;99.90
43015;DHT22;28637;50.554;7.032;2022-11-20T04:47:57;4.40;99.90
43015;DHT22;28637;50.554;7.032;2022-11-20T04:52:58;4.40;99.90
43015;DHT22;28637;50.554;7.032;2022-11-20T04:57:58;4.20;99.90
43015;DHT22;28637;50.554;7.032;2022-11-20T05:02:59;4.10;99.90
43015;DHT22;28637;50.554;7.032;2022-11-20T05:08:00;4.20;99.90
43015;DHT22;28637;50.554;7.032;2022-11-20T05:13:01;4.20;99.90
43015;DHT22;28637;50.554;7.032;2022-11-20T05:18:01;4.30;99.90
43015;DHT22;28637;50.554;7.032;2022-11-20T05:23:02;4.20;99.90
43015;DHT22;28637;50.554;7.032;2022-11-20T05:28:03;4.40;99.90
43015;DHT22;28637;50.554;7.032;2022-11-20T05:33:04;4.50;99.90
43015;DHT22;28637;50.554;7.032;2022-11-20T05:38:05;4.60;99.90
43015;DHT22;28637;50.554;7.032;2022-11-20T05:43:05;4.70;99.90
43015;DHT22;28637;50.554;7.032;2022-11-20T05:48:06;4.70;99.90
43015;DHT22;28637;50.554;7.032;2022-11-20T05:53:07;4.60;99.90
43015;DHT22;28637;50.554;7.032;2022-11-20T05:58:07;4.70;99.90
43015;DHT22;28637;50.554;7.032;2022-11-20T06:03:08;4.70;99.90
43015;DHT22;28637;50.554;7.032;2022-11-20T06:08:09;4.80;99.90
43015;DHT22;28637;50.554;7.032;2022-11-20T06:13:09;4.90;99.90
43015;DHT22;28637;50.554;7.032;2022-11-20T06:18:10;4.90;99.90
43015;DHT22;28637;50.554;7.032;2022-11-20T06:23:11;4.90;99.90
43015;DHT22;28637;50.554;7.032;2022-11-20T06:28:11;5.10;99.90
43015;DHT22;28637;50.554;7.032;2022-11-20T06:33:12;5.10;99.90
43015;DHT22;28637;50.554;7.032;2022-11-20T06:38:13;5.10;99.90
43015;DHT22;28637;50.554;7.032;2022-11-20T06:43:13;5.10;99.90
43015;DHT22;28637;50.554;7.032;2022-11-20T06:48:14;5.10;99.90
43015;DHT22;28637;50.554;7.032;2022-11-20T06:53:15;5.10;99.90
43015;DHT22;28637;50.554;7.032;2022-11-20T06:58:16;5.20;99.90
43015;DHT22;28637;50.554;7.032;2022-11-20T07:03:17;5.20;99.90
43015;DHT22;28637;50.554;7.032;2022-11-20T07:08:18;5.30;99.90
43015;DHT22;28637;50.554;7.032;2022-11-20T07:13:18;5.30;99.90
43015;DHT22;28637;50.554;7.032;2022-11-20T07:18:19;5.30;99.90
43015;DHT22;28637;50.554;7.032;2022-11-20T07:23:21;5.20;99.90
43015;DHT22;28637;50.554;7.032;2022-11-20T07:28:22;5.30;99.90
43015;DHT22;28637;50.554;7.032;2022-11-20T07:33:23;5.20;99.90
43015;DHT22;28637;50.554;7.032;2022-11-20T07:38:23;5.30;99.90
43015;DHT22;28637;50.554;7.032;2022-11-20T07:43:24;5.30;99.90
43015;DHT22;28637;50.554;7.032;2022-11-20T07:48:25;5.30;99.90
43015;DHT22;28637;50.554;7.032;2022-11-20T07:53:26;5.30;99.90
43015;DHT22;28637;50.554;7.032;2022-11-20T07:58:28;5.20;99.90
43015;DHT22;28637;50.554;7.032;2022-11-20T08:03:29;5.20;99.90
43015;DHT22;28637;50.554;7.032;2022-11-20T08:08:30;5.20;99.90
43015;DHT22;28637;50.554;7.032;2022-11-20T08:13:31;5.20;99.90
43015;DHT22;28637;50.554;7.032;2022-11-20T08:18:50;5.20;99.90
43015;DHT22;28637;50.554;7.032;2022-11-20T08:23:50;5.20;99.90
43015;DHT22;28637;50.554;7.032;2022-11-20T08:28:58;5.20;99.90
43015;DHT22;28637;50.554;7.032;2022-11-20T08:33:59;5.20;99.90
43015;DHT22;28637;50.554;7.032;2022-11-20T08:38:59;5.20;99.90
43015;DHT22;28637;50.554;7.032;2022-11-20T08:44:04;5.20;99.90
43015;DHT22;28637;50.554;7.032;2022-11-20T08:49:11;5.30;99.90
43015;DHT22;28637;50.554;7.032;2022-11-20T08:54:12;5.30;99.90
43015;DHT22;28637;50.554;7.032;2022-11-20T08:59:13;5.30;99.90
43015;DHT22;28637;50.554;7.032;2022-11-20T09:04:14;5.50;99.90
43015;DHT22;28637;50.554;7.032;2022-11-20T09:09:15;5.50;99.90
43015;DHT22;28637;50.554;7.032;2022-11-20T09:14:16;5.60;99.90
43015;DHT22;28637;50.554;7.032;2022-11-20T09:19:17;5.80;99.90
43015;DHT22;28637;50.554;7.032;2022-11-20T09:24:40;5.80;99.90
43015;DHT22;28637;50.554;7.032;2022-11-20T09:29:40;5.80;99.90
43015;DHT22;28637;50.554;7.032;2022-11-20T09:34:41;5.70;99.90
43015;DHT22;28637;50.554;7.032;2022-11-20T09:39:42;5.60;99.90
43015;DHT22;28637;50.554;7.032;2022-11-20T09:55:37;5.80;99.90
43015;DHT22;28637;50.554;7.032;2022-11-20T10:00:38;5.90;99.90
43015;DHT22;28637;50.554;7.032;2022-11-20T10:05:46;5.90;99.90
43015;DHT22;28637;50.554;7.032;2022-11-20T10:11:32;6.00;99.90
43015;DHT22;28637;50.554;7.032;2022-11-20T10:28:01;6.20;99.90
43015;DHT22;28637;50.554;7.032;2022-11-20T10:33:21;6.20;99.90
43015;DHT22;28637;50.554;7.032;2022-11-20T10:38:39;6.30;99.90
43015;DHT22;28637;50.554;7.032;2022-11-20T10:43:40;6.30;99.90
43015;DHT22;28637;50.554;7.032;2022-11-20T10:48:43;6.30;99.90
43015;DHT22;28637;50.554;7.032;2022-11-20T11:04:52;6.80;99.90
43015;DHT22;28637;50.554;7.032;2022-11-20T11:09:54;7.00;99.90
43015;DHT22;28637;50.554;7.032;2022-11-20T11:14:57;7.00;99.90
43015;DHT22;28637;50.554;7.032;2022-11-20T11:19:59;6.90;99.90
43015;DHT22;28637;50.554;7.032;2022-11-20T11:25:01;6.90;99.90
43015;DHT22;28637;50.554;7.032;2022-11-20T11:30:12;7.00;99.90
43015;DHT22;28637;50.554;7.032;2022-11-20T11:40:21;6.90;99.90
43015;DHT22;28637;50.554;7.032;2022-11-20T11:45:23;6.90;99.90
43015;DHT22;28637;50.554;7.032;2022-11-20T11:50:25;6.80;99.90
43015;DHT22;28637;50.554;7.032;2022-11-20T11:55:46;7.00;99.90
43015;DHT22;28637;50.554;7.032;2022-11-20T12:00:57;7.10;99.90
43015;DHT22;28637;50.554;7.032;2022-11-20T12:06:04;7.20;99.90
43015;DHT22;28637;50.554;7.032;2022-11-20T12:16:24;7.20;99.90
43015;DHT22;28637;50.554;7.032;2022-11-20T12:21:33;7.20;99.90
43015;DHT22;28637;50.554;7.032;2022-11-20T12:37:36;7.40;99.90
43015;DHT22;28637;50.554;7.032;2022-11-20T12:48:27;7.40;99.90
43015;DHT22;28637;50.554;7.032;2022-11-20T12:53:50;7.40;99.90
43015;DHT22;28637;50.554;7.032;2022-11-20T13:09:23;7.50;99.90
43015;DHT22;28637;50.554;7.032;2022-11-20T13:14:42;7.60;99.90
43015;DHT22;28637;50.554;7.032;2022-11-20T13:19:53;7.50;99.90
43015;DHT22;28637;50.554;7.032;2022-11-20T13:24:55;7.50;99.90
43015;DHT22;28637;50.554;7.032;2022-11-20T13:35:25;7.40;99.90
43015;DHT22;28637;50.554;7.032;2022-11-20T13:40:27;7.40;99.90
43015;DHT22;28637;50.554;7.032;2022-11-20T13:45:30;7.40;99.90
43015;DHT22;28637;50.554;7.032;2022-11-20T13:55:46;7.40;99.90
43015;DHT22;28637;50.554;7.032;2022-11-20T14:00:52;7.20;99.90
43015;DHT22;28637;50.554;7.032;2022-11-20T14:05:59;7.10;99.90
43015;DHT22;28637;50.554;7.032;2022-11-20T14:16:21;7.20;99.90
43015;DHT22;28637;50.554;7.032;2022-11-20T14:21:28;7.30;99.90
43015;DHT22;28637;50.554;7.032;2022-11-20T14:26:29;7.30;99.90
43015;DHT22;28637;50.554;7.032;2022-11-20T14:31:30;7.30;99.90
43015;DHT22;28637;50.554;7.032;2022-11-20T14:36:32;7.40;99.90
43015;DHT22;28637;50.554;7.032;2022-11-20T14:41:33;7.50;99.90
43015;DHT22;28637;50.554;7.032;2022-11-20T14:46:33;7.50;99.90
43015;DHT22;28637;50.554;7.032;2022-11-20T14:51:39;7.50;99.90
43015;DHT22;28637;50.554;7.032;2022-11-20T15:02:09;7.30;99.90
43015;DHT22;28637;50.554;7.032;2022-11-20T15:07:11;7.30;99.90
43015;DHT22;28637;50.554;7.032;2022-11-20T15:12:17;7.00;99.90
43015;DHT22;28637;50.554;7.032;2022-11-20T15:17:18;7.00;99.90
43015;DHT22;28637;50.554;7.032;2022-11-20T15:22:19;6.90;99.90
43015;DHT22;28637;50.554;7.032;2022-11-20T15:27:19;7.00;99.90
43015;DHT22;28637;50.554;7.032;2022-11-20T15:32:21;7.10;99.90
43015;DHT22;28637;50.554;7.032;2022-11-20T15:37:22;7.20;99.90
43015;DHT22;28637;50.554;7.032;2022-11-20T15:42:24;7.10;99.90
43015;DHT22;28637;50.554;7.032;2022-11-20T15:47:28;7.20;99.90
43015;DHT22;28637;50.554;7.032;2022-11-20T15:52:30;7.20;99.90
43015;DHT22;28637;50.554;7.032;2022-11-20T15:57:30;7.20;99.90
43015;DHT22;28637;50.554;7.032;2022-11-20T16:02:31;7.20;99.90
43015;DHT22;28637;50.554;7.032;2022-11-20T16:07:32;7.10;99.90
43015;DHT22;28637;50.554;7.032;2022-11-20T16:12:32;7.10;99.90
43015;DHT22;28637;50.554;7.032;2022-11-20T16:17:52;7.10;99.90
43015;DHT22;28637;50.554;7.032;2022-11-20T16:22:53;7.10;99.90
43015;DHT22;28637;50.554;7.032;2022-11-20T16:27:53;7.00;99.90
43015;DHT22;28637;50.554;7.032;2022-11-20T16:32:54;6.90;99.90
43015;DHT22;28637;50.554;7.032;2022-11-20T16:37:56;6.90;99.90
43015;DHT22;28637;50.554;7.032;2022-11-20T16:42:57;6.90;99.90
43015;DHT22;28637;50.554;7.032;2022-11-20T16:48:06;6.70;99.90
43015;DHT22;28637;50.554;7.032;2022-11-20T16:53:07;6.70;99.90
43015;DHT22;28637;50.554;7.032;2022-11-20T16:58:08;6.70;99.90
43015;DHT22;28637;50.554;7.032;2022-11-20T17:03:10;6.70;99.90
43015;DHT22;28637;50.554;7.032;2022-11-20T17:08:13;6.70;99.90
43015;DHT22;28637;50.554;7.032;2022-11-20T17:13:13;6.70;99.90
43015;DHT22;28637;50.554;7.032;2022-11-20T17:18:14;6.60;99.90
43015;DHT22;28637;50.554;7.032;2022-11-20T17:23:14;6.60;99.90
43015;DHT22;28637;50.554;7.032;2022-11-20T17:28:15;6.60;99.90
43015;DHT22;28637;50.554;7.032;2022-11-20T17:33:16;6.60;99.90
43015;DHT22;28637;50.554;7.032;2022-11-20T17:38:16;6.60;99.90
43015;DHT22;28637;50.554;7.032;2022-11-20T17:43:17;6.50;99.90
43015;DHT22;28637;50.554;7.032;2022-11-20T17:48:18;6.40;99.90
43015;DHT22;28637;50.554;7.032;2022-11-20T17:53:19;6.40;99.90
43015;DHT22;28637;50.554;7.032;2022-11-20T17:58:20;6.30;99.90
43015;DHT22;28637;50.554;7.032;2022-11-20T18:03:23;6.30;99.90
43015;DHT22;28637;50.554;7.032;2022-11-20T18:08:26;6.20;99.90
43015;DHT22;28637;50.554;7.032;2022-11-20T18:13:27;6.20;99.90
43015;DHT22;28637;50.554;7.032;2022-11-20T18:18:48;6.20;99.90
43015;DHT22;28637;50.554;7.032;2022-11-20T18:23:49;6.10;99.90
43015;DHT22;28637;50.554;7.032;2022-11-20T18:28:50;6.10;99.90
43015;DHT22;28637;50.554;7.032;2022-11-20T18:33:51;6.10;99.90
43015;DHT22;28637;50.554;7.032;2022-11-20T18:38:55;6.10;99.90
43015;DHT22;28637;50.554;7.032;2022-11-20T18:43:57;6.20;99.90
43015;DHT22;28637;50.554;7.032;2022-11-20T18:49:16;6.10;99.90
43015;DHT22;28637;50.554;7.032;2022-11-20T18:54:17;6.10;99.90
43015;DHT22;28637;50.554;7.032;2022-11-20T18:59:19;6.10;99.90
43015;DHT22;28637;50.554;7.032;2022-11-20T19:04:20;6.10;99.90
43015;DHT22;28637;50.554;7.032;2022-11-20T19:09:22;6.20;99.90
43015;DHT22;28637;50.554;7.032;2022-11-20T19:14:23;6.20;99.90
43015;DHT22;28637;50.554;7.032;2022-11-20T19:19:24;6.30;99.90
43015;DHT22;28637;50.554;7.032;2022-11-20T19:24:24;6.30;99.90
43015;DHT22;28637;50.554;7.032;2022-11-20T19:29:27;6.30;99.90
43015;DHT22;28637;50.554;7.032;2022-11-20T19:34:29;6.30;99.90
43015;DHT22;28637;50.554;7.032;2022-11-20T19:39:30;6.30;99.90
43015;DHT22;28637;50.554;7.032;2022-11-20T19:44:30;6.30;99.90
43015;DHT22;28637;50.554;7.032;2022-11-20T19:49:32;6.20;99.90
43015;DHT22;28637;50.554;7.032;2022-11-20T19:54:32;6.10;99.90
43015;DHT22;28637;50.554;7.032;2022-11-20T19:59:33;6.10;99.90
43015;DHT22;28637;50.554;7.032;2022-11-20T20:04:34;6.00;99.90
43015;DHT22;28637;50.554;7.032;2022-11-20T20:09:35;6.10;99.90
43015;DHT22;28637;50.554;7.032;2022-11-20T20:14:35;6.00;99.90
43015;DHT22;28637;50.554;7.032;2022-11-20T20:19:36;6.20;99.90
43015;DHT22;28637;50.554;7.032;2022-11-20T20:24:37;6.30;99.90
43015;DHT22;28637;50.554;7.032;2022-11-20T20:29:37;6.30;99.90
43015;DHT22;28637;50.554;7.032;2022-11-20T20:34:38;6.30;99.90
43015;DHT22;28637;50.554;7.032;2022-11-20T20:39:39;6.30;99.90
43015;DHT22;28637;50.554;7.032;2022-11-20T20:44:40;6.30;99.90
43015;DHT22;28637;50.554;7.032;2022-11-20T20:50:00;6.30;99.90
43015;DHT22;28637;50.554;7.032;2022-11-20T20:55:01;6.30;99.90
43015;DHT22;28637;50.554;7.032;2022-11-20T21:00:03;6.30;99.90
43015;DHT22;28637;50.554;7.032;2022-11-20T21:05:05;6.30;99.90
43015;DHT22;28637;50.554;7.032;2022-11-20T21:10:06;6.40;99.90
43015;DHT22;28637;50.554;7.032;2022-11-20T21:15:06;6.50;99.90
43015;DHT22;28637;50.554;7.032;2022-11-20T21:20:08;6.60;99.90
43015;DHT22;28637;50.554;7.032;2022-11-20T21:25:28;6.60;99.90
43015;DHT22;28637;50.554;7.032;2022-11-20T21:30:29;6.50;99.90
43015;DHT22;28637;50.554;7.032;2022-11-20T21:35:32;6.40;99.90
43015;DHT22;28637;50.554;7.032;2022-11-20T21:40:33;6.30;99.90
43015;DHT22;28637;50.554;7.032;2022-11-20T21:45:34;6.20;99.90
43015;DHT22;28637;50.554;7.032;2022-11-20T21:50:35;5.90;99.90
43015;DHT22;28637;50.554;7.032;2022-11-20T21:55:35;5.70;99.90
43015;DHT22;28637;50.554;7.032;2022-11-20T22:00:36;5.70;99.90
43015;DHT22;28637;50.554;7.032;2022-11-20T22:05:37;5.60;99.90
43015;DHT22;28637;50.554;7.032;2022-11-20T22:10:38;5.80;99.90
43015;DHT22;28637;50.554;7.032;2022-11-20T22:15:38;5.80;99.90
43015;DHT22;28637;50.554;7.032;2022-11-20T22:20:40;5.90;99.90
43015;DHT22;28637;50.554;7.032;2022-11-20T22:25:40;6.00;99.90
43015;DHT22;28637;50.554;7.032;2022-11-20T22:30:41;6.10;99.90
43015;DHT22;28637;50.554;7.032;2022-11-20T22:35:42;6.20;99.90
43015;DHT22;28637;50.554;7.032;2022-11-20T22:40:42;6.20;99.90
43015;DHT22;28637;50.554;7.032;2022-11-20T22:45:44;6.30;99.90
43015;DHT22;28637;50.554;7.032;2022-11-20T22:50:45;6.40;99.90
43015;DHT22;28637;50.554;7.032;2022-11-20T22:55:48;6.50;99.90
43015;DHT22;28637;50.554;7.032;2022-11-20T23:00:49;6.50;99.90
43015;DHT22;28637;50.554;7.032;2022-11-20T23:05:50;6.60;99.90
43015;DHT22;28637;50.554;7.032;2022-11-20T23:10:50;6.70;99.90
43015;DHT22;28637;50.554;7.032;2022-11-20T23:15:51;6.70;99.90
43015;DHT22;28637;50.554;7.032;2022-11-20T23:20:52;6.80;99.90
43015;DHT22;28637;50.554;7.032;2022-11-20T23:25:54;6.80;99.90
43015;DHT22;28637;50.554;7.032;2022-11-20T23:30:55;6.80;99.90
43015;DHT22;28637;50.554;7.032;2022-11-20T23:35:56;6.80;99.90
43015;DHT22;28637;50.554;7.032;2022-11-20T23:40:56;6.80;99.90
43015;DHT22;28637;50.554;7.032;2022-11-20T23:45:59;6.80;99.90
43015;DHT22;28637;50.554;7.032;2022-11-20T23:51:00;6.80;99.90
43015;DHT22;28637;50.554;7.032;2022-11-20T23:56:03;6.90;99.90
